»·PEaware :: JZA384 KGCN-KLAS

JZA384 :: KGCN-KLAS

FLIGHT INFORMATION

Flight Status: Arrived
Operator:
Air Canada Jazz
More flights by this operator :: More flights under this callsign
Pilot: Ben W. (5837)
Aircraft: DEHAVILLAND DASH 8 400
(DH8D)
More flights by this aircraft type
Origin: KGCN Grand Canyon Natl Park
United States
Destination: KLAS McCarran Intl
United States
More flights between these airports :: More routes between these airports
Route: +PARKS2 PGS V562 LAS
File this flight plan on PilotEdge
Remarks:
Altitude:
(Current/Filed)
20,000ft
Speed:
(Current/Filed)
265kts
Departed: 20-Mar-16 08:32 PM
Arrived: 20-Mar-16 09:09 PM
Distance/Time
Traveled:
146nm/0:36
Distance/Time
To Go:
Arrived

Flight Plot

Page will automatically refresh every two minutes.


Map Options




Map Legend


Flown Route
Filed Route
Departure Airport
Arrival Airport
Navaid (VOR, NDB)
Fix

Horizontal Profiles

Position Reports

Time Latitude Longitude Heading Altitude Ground
Speed
20-Mar-16 19:59 35.957318 -112.139397 219 6616ft 0kts
20-Mar-16 20:00 35.957318 -112.139397 219 6616ft 0kts
20-Mar-16 20:01 35.957318 -112.139397 219 6616ft 0kts
20-Mar-16 20:02 35.957318 -112.139397 219 6616ft 0kts
20-Mar-16 20:03 35.957318 -112.139397 219 6616ft 0kts
20-Mar-16 20:04 35.957318 -112.139397 219 6616ft 0kts
20-Mar-16 20:05 35.957318 -112.139397 219 6616ft 0kts
20-Mar-16 20:06 35.957318 -112.139397 219 6616ft 0kts
20-Mar-16 20:07 35.957318 -112.139397 219 6616ft 0kts
20-Mar-16 20:08 35.957318 -112.139397 219 6616ft 0kts
20-Mar-16 20:09 35.957318 -112.139397 219 6616ft 0kts
20-Mar-16 20:10 35.957318 -112.139397 219 6616ft 0kts
20-Mar-16 20:11 35.957318 -112.139397 219 6616ft 0kts
20-Mar-16 20:12 35.957318 -112.139397 219 6616ft 0kts
20-Mar-16 20:13 35.957319 -112.139396 219 6616ft 0kts
20-Mar-16 20:14 35.957252 -112.139193 45 6616ft 0kts
20-Mar-16 20:15 35.957807 -112.139376 13 6616ft 5kts
20-Mar-16 20:16 35.959776 -112.137368 41 6616ft 9kts
20-Mar-16 20:17 35.960878 -112.136246 10 6616ft 0kts
20-Mar-16 20:18 35.960878 -112.136246 10 6616ft 0kts
20-Mar-16 20:19 35.960878 -112.136246 10 6616ft 0kts
20-Mar-16 20:20 35.961119 -112.136377 311 6616ft 0kts
20-Mar-16 20:21 35.961422 -112.137375 222 6616ft 0kts
20-Mar-16 20:22 35.961422 -112.137375 222 6616ft 0kts
20-Mar-16 20:23 35.960893 -112.137918 219 6616ft 32kts
20-Mar-16 20:24 35.934552 -112.160866 207 7878ft 147kts
20-Mar-16 20:25 35.899481 -112.199746 259 9294ft 220kts
20-Mar-16 20:26 35.912082 -112.273994 281 11527ft 231kts
20-Mar-16 20:27 35.914800 -112.348688 252 13704ft 233kts
20-Mar-16 20:28 35.895289 -112.423255 250 15544ft 242kts
20-Mar-16 20:29 35.876426 -112.500134 254 17097ft 249kts
20-Mar-16 20:30 35.857785 -112.580940 255 18511ft 255kts
20-Mar-16 20:31 35.838238 -112.663923 255 19770ft 260kts
20-Mar-16 20:32 35.817137 -112.752970 255 19996ft 292kts
20-Mar-16 20:33 35.793760 -112.850775 254 19995ft 313kts
20-Mar-16 20:34 35.769124 -112.952918 254 19989ft 323kts
20-Mar-16 20:35 35.744339 -113.055474 254 19971ft 327kts
20-Mar-16 20:36 35.719078 -113.159630 254 19957ft 327kts
20-Mar-16 20:37 35.694313 -113.261229 254 19946ft 327kts
20-Mar-16 20:38 35.668727 -113.365753 254 19926ft 323kts
20-Mar-16 20:39 35.644123 -113.465839 254 19917ft 321kts
20-Mar-16 20:40 35.642529 -113.568829 293 19888ft 321kts
20-Mar-16 20:41 35.689480 -113.657878 302 19867ft 322kts
20-Mar-16 20:42 35.738931 -113.742928 302 19858ft 321kts
20-Mar-16 20:43 35.788387 -113.829201 302 19851ft 321kts
20-Mar-16 20:44 35.838215 -113.916451 302 19843ft 321kts
20-Mar-16 20:45 35.887089 -114.002208 302 19393ft 322kts
20-Mar-16 20:46 35.937524 -114.091104 302 17663ft 335kts
20-Mar-16 20:47 35.989343 -114.182430 302 15905ft 332kts
20-Mar-16 20:48 36.040037 -114.271966 303 14179ft 329kts
20-Mar-16 20:49 36.088441 -114.357790 302 12424ft 301kts
20-Mar-16 20:50 36.128821 -114.442722 277 10688ft 293kts
20-Mar-16 20:51 36.136213 -114.534622 272 8955ft 272kts
20-Mar-16 20:52 36.144689 -114.621177 272 8087ft 261kts
20-Mar-16 20:53 36.153323 -114.704938 272 8059ft 260kts
20-Mar-16 20:54 36.161994 -114.788784 272 8043ft 265kts
20-Mar-16 20:55 36.167750 -114.867260 263 7797ft 259kts
20-Mar-16 20:56 36.163737 -114.950244 262 6070ft 252kts
20-Mar-16 20:57 36.159279 -115.030239 262 4572ft 224kts
20-Mar-16 20:58 36.154434 -115.098829 258 3242ft 178kts
20-Mar-16 20:59 36.127066 -115.137465 201 2763ft 149kts
20-Mar-16 21:00 36.093188 -115.156580 203 2189ft 119kts
20-Mar-16 21:01 36.083312 -115.161235 174 2189ft 3kts
20-Mar-16 21:02 36.084754 -115.159276 24 2189ft 17kts
20-Mar-16 21:03 36.088772 -115.156976 23 2189ft 15kts
20-Mar-16 21:04 36.091609 -115.154593 121 2189ft 10kts
20-Mar-16 21:05 36.091358 -115.154059 119 2188ft 0kts
20-Mar-16 21:06 36.091358 -115.154059 119 2188ft 0kts
20-Mar-16 21:07 36.091358 -115.154059 119 2188ft 0kts
20-Mar-16 21:08 36.091358 -115.154059 119 2188ft 0kts

Navigation Log

Ident Type
Flight plan parsing failed, navigation log unavailable